• Join FlightAware (Why Join?)
  • Login
  • US Flag 
01:59PM EDT


 

Airport Tracker/Info


-or-


 

Live Flight TrackerFlight Track Log ✈ UCA3597 ✈ 28-Sep-2013 ✈ KBGM - KIAD

Flight Track Log - Related Links

Times and Time Zones

All times are in EDT time to prevent confusion due to time zone crossing. See the UCA3597 flight status page for this flight to view local times or setup timezone preferences in your user account.

Time Position Orientation Groundspeed Altitude Reporting Facility
EDT Latitude Longitude Course Direction KTS MPH feet Rate Location/Type
07:04PM 42.1108 -76.0292 211° Southwest 205 236 5,600  Level New York Center
07:05PM 42.0672 -76.0731 217° Southwest 205 236 7,300 1,440 Climbing New York Center
07:06PM 42.0175 -76.1167 213° Southwest 210 242 8,600 1,260 Climbing New York Center
07:07PM 41.9617 -76.1511 205° Southwest 218 251 9,900 1,380 Climbing New York Center
07:08PM 41.9017 -76.1908 206° Southwest 223 257 11,400 1,320 Climbing New York Center
07:09PM 41.8338 -76.1577 211° Southwest  Level Estimated
07:09PM 41.8500 -76.2256 207° Southwest 223 257 12,600  Level New York Center
07:10PM 41.7922 -76.2597 204° Southwest 223 257 13,600 1,080 Climbing New York Center
07:11PM 41.7431 -76.2919 206° Southwest 223 257 14,800 1,140 Climbing New York Center
07:12PM 41.6786 -76.3339 206° Southwest 223 257 16,000 600 Climbing New York Center
07:13PM 41.6100 -76.3725 203° Southwest 249 287 16,000  Level New York Center
07:14PM 41.5369 -76.4217 207° Southwest 279 321 16,000  Level New York Center
07:15PM 41.4703 -76.4633 205° Southwest 295 339 16,000  Level New York Center
07:16PM 41.3953 -76.5094 205° Southwest 300 345 16,000  Level New York Center
07:17PM 41.3136 -76.5606 205° Southwest 300 345 16,000  Level New York Center
07:18PM 41.2383 -76.6092 206° Southwest 305 351 16,000  Level New York Center
07:19PM 41.1611 -76.6550 204° Southwest 305 351 16,000  Level New York Center
07:20PM 41.0856 -76.7036 206° Southwest 305 351 16,000  Level New York Center
07:21PM 41.0103 -76.7519 206° Southwest 305 351 16,000  Level New York Center
07:22PM 40.9350 -76.7975 205° Southwest 305 351 16,000  Level New York Center
07:23PM 40.8619 -76.8433 205° Southwest 305 351 16,000  Level New York Center
07:24PM 40.7844 -76.8883 204° Southwest 305 351 16,000  Level New York Center
07:25PM 40.7061 -76.9142 194° South 299 344 16,000  Level New York Center
07:26PM 40.6256 -76.9372 192° South 299 344 16,000  Level New York Center
07:27PM 40.5450 -76.9628 194° South 299 344 16,000  Level New York Center
07:28PM 40.4667 -76.9858 193° South 299 344 16,000  Level New York Center
07:29PM 40.3861 -77.0111 193° South 299 344 16,000 -540 Level New York Center
07:30PM 40.3056 -77.0367 194° South 304 350 15,000 -1,320 Descending New York Center
07:32PM 40.1333 -77.0833 192° South 317 365 12,000 -1,500 Descending Potomac TRACON
07:33PM 40.0500 -77.1167 197° South 303 349 10,500 -1,440 Descending Potomac TRACON
07:34PM 39.9833 -77.1500 201° Southwest 287 330 9,200 -720 Descending Potomac TRACON
07:36PM 39.9000 -77.1833 197° South 270 311 9,000 -120 Descending Potomac TRACON
07:37PM 39.8167 -77.2167 197° South 263 303 9,000 -60 Level Potomac TRACON
07:37PM 39.7667 -77.2333 194° South 263 303 8,900 -480 Descending Potomac TRACON
07:38PM 39.7000 -77.2500 191° South 270 311 8,100 -720 Descending Potomac TRACON
07:39PM 39.6167 -77.2833 197° South 272 313 7,500 -600 Descending Potomac TRACON
07:40PM 39.5500 -77.3167 201° Southwest 268 308 7,000 -240 Descending Potomac TRACON
07:42PM 39.4667 -77.3500 197° South 259 298 7,000  Level Potomac TRACON
07:42PM 39.4167 -77.3667 194° South 252 290 7,000  Level Potomac TRACON
07:43PM 39.3500 -77.3667 180° South 250 288 7,000 -360 Level Potomac TRACON
07:44PM 39.2833 -77.3667 180° South 249 287 6,300 -1,500 Descending Potomac TRACON
07:45PM 39.2167 -77.3667 180° South 232 267 4,000 -1,260 Descending Potomac TRACON
07:46PM 39.1667 -77.3667 180° South 221 254 4,000  Level Potomac TRACON
07:47PM 39.0833 -77.3500 171° South 238 274 4,000 -420 Level Potomac TRACON
07:48PM 39.0167 -77.3500 180° South 252 290 3,200 -540 Descending Potomac TRACON
07:49PM 38.9500 -77.3500 180° South 248 285 3,000 -360 Descending Potomac TRACON
07:50PM 38.8833 -77.3667 191° South 222 255 2,600 -540 Descending Potomac TRACON
07:51PM 38.8167 -77.3667 180° South 230 265 2,000 -300 Descending Potomac TRACON
07:52PM 38.8333 -77.4333 288° West 218 251 2,000 -300 Level Potomac TRACON
07:53PM 38.8667 -77.4333 360° North 140 161 1,400 -660 Descending Potomac TRACON
07:54PM 38.9000 -77.4333 360° North 129 148 700 -720 Descending Potomac TRACON
07:56PM 38.9333 -77.4500 349° North  Level FlightAware Approximate
08:03PM 38.9474 -77.4599 349° North  Level Estimated
08:04PM 38.9474 -77.4599 349° North  Level Estimated